Date,TemperatureHighF,TemperatureAvgF,TemperatureLowF,DewpointHighF,DewpointAvgF,DewpointLowF,HumidityHigh,HumidityAvg,HumidityLow,PressureMaxIn,PressureMinIn,WindSpeedMaxMPH,WindSpeedAvgMPH,GustSpeedMaxMPH,PrecipitationSumIn
2014-1-6,32,16,-1,10,0,-12,69,51,33,30.79,30.49,9,1,9,0.00
2014-1-7,42,30,15,19,15,6,71,53,33,30.49,30.05,13,0,13,0.00
2014-1-8,36,26,16,20,14,7,77,61,49,30.26,30.06,12,0,12,0.00
2014-1-9,40,30,12,17,11,3,72,47,30,30.22,29.80,21,4,24,0.00
2014-1-10,33,28,20,14,9,2,55,45,38,30.03,29.73,30,6,30,0.00
2014-1-11,50,42,29,24,20,14,56,42,29,30.24,29.74,34,4,34,0.00
2014-1-12,40,31,23,27,12,2,80,46,32,30.00,29.56,33,10,33,0.00
2014-1-13,41,32,14,16,11,1,59,42,30,30.29,30.06,19,3,19,0.00
2014-1-14,37,28,14,17,11,3,66,49,37,30.57,30.26,16,2,19,0.00
2014-1-15,42,29,10,23,15,3,73,55,40,30.60,30.20,9,1,9,0.00
2014-1-16,44,29,11,19,12,1,69,49,29,30.53,30.18,11,1,11,0.00
2014-1-17,41,28,9,21,13,2,74,55,37,30.55,30.20,10,1,11,0.00
2014-1-18,45,31,12,24,15,4,76,51,37,30.53,30.27,11,1,11,0.00
2014-1-19,50,35,18,26,16,5,66,47,30,30.47,30.11,10,0,10,0.00
2014-1-20,43,29,12,23,15,2,76,58,35,30.68,30.31,15,1,18,0.00
2014-1-21,50,34,8,24,11,-1,67,41,17,30.74,30.27,14,1,14,0.00
2014-1-22,42,27,7,18,10,-5,67,48,27,30.46,30.08,11,0,11,0.00
2014-1-23,26,16,6,13,8,-1,82,71,56,30.81,30.51,8,1,8,0.01
2014-1-24,42,29,4,17,10,-2,75,47,26,30.85,30.43,10,1,10,0.00
2014-1-25,50,35,12,27,19,3,69,53,34,30.55,29.99,9,0,9,0.00
2014-1-26,47,35,19,22,17,10,69,48,30,30.13,29.80,19,2,19,0.00
2014-1-27,28,19,11,16,11,5,92,72,54,30.31,29.94,16,2,18,0.00
2014-1-28,27,14,-4,11,2,-9,84,58,38,30.65,30.34,12,0,12,0.04
2014-1-29,47,37,9,27,16,-2,63,44,29,30.42,29.58,33,4,33,0.01
2014-1-30,45,39,30,33,29,26,84,66,50,29.57,29.46,23,4,23,0.00
2014-1-31,39,26,20,27,20,17,92,79,50,29.80,29.47,23,2,24,0.07
2014-2-1,26,21,14,20,16,9,86,82,75,30.17,29.85,10,1,10,0.01
2014-2-2,24,12,1,12,4,-4,92,71,54,30.42,30.12,11,0,11,0.03
2014-2-3,36,28,17,18,12,7,71,53,38,30.10,29.70,16,2,16,0.04
2014-2-4,21,14,4,15,9,-2,83,78,70,30.35,29.94,12,0,12,0.02
2014-2-5,12,-2,-11,2,-8,-16,77,73,63,30.78,30.42,10,1,10,0.00
2014-2-6,32,25,12,12,9,4,76,51,37,30.39,29.84,22,4,22,0.01
2014-2-7,37,32,22,16,12,9,59,44,32,29.95,29.74,28,4,28,0.00
2014-2-8,41,38,33,23,20,14,55,48,42,29.95,29.83,53,9,53,0.02
2014-2-9,49,42,34,30,26,22,76,53,40,29.87,29.66,21,2,21,0.03
2014-2-10,38,32,22,32,26,18,88,78,55,30.19,29.80,15,1,15,0.03
2014-2-11,41,27,16,25,16,6,87,66,27,30.32,29.96,15,1,15,0.04
2014-2-12,48,36,9,24,17,1,72,48,28,30.43,29.89,14,1,14,0.01
2014-2-13,51,45,34,27,24,19,57,43,35,29.94,29.69,33,9,35,0.00
2014-2-14,50,44,32,28,25,20,62,47,37,29.94,29.75,31,6,31,0.00
2014-2-15,57,52,37,26,23,19,63,32,24,29.90,29.73,36,10,36,0.00
2014-2-16,52,48,44,27,22,16,42,35,28,29.84,29.62,32,8,32,0.00
2014-2-17,54,45,24,19,11,3,63,27,13,30.18,29.90,20,2,20,0.00
2014-2-18,55,48,36,19,11,6,49,23,15,29.94,29.71,29,7,29,0.00
2014-2-19,49,41,26,22,17,14,77,41,27,29.87,29.55,23,5,23,0.00
2014-2-23,53,46,35,16,12,8,39,25,18,29.94,29.77,26,4,26,0.00
2014-2-24,54,46,33,17,12,6,49,26,19,29.99,29.76,26,5,26,0.00
2014-2-25,49,44,31,19,17,15,55,34,26,29.94,29.82,12,1,12,0.00
2014-2-27,49,44,30,23,21,18,62,40,34,29.89,29.59,15,2,16,0.00
2014-2-28,51,44,29,25,19,7,62,37,17,29.76,29.54,29,7,30,0.00
2014-3-1,43,40,36,37,32,24,86,72,50,29.74,29.55,29,5,29,0.11
2014-3-2,45,38,30,32,25,20,86,63,38,30.07,29.83,15,2,16,0.01
2014-3-3,49,43,30,24,21,18,68,43,30,30.14,29.90,20,4,20,0.00
2014-3-4,47,39,29,25,21,14,65,47,27,29.97,29.74,19,2,19,0.00
2014-3-5,50,36,17,29,22,13,88,60,28,30.26,29.99,12,1,12,0.05
2014-3-6,58,50,27,23,18,13,69,30,19,30.16,29.64,13,2,14,0.00
2014-3-7,37,37,37,24,24,24,60,60,59,29.74,29.74,1,0,6,0.00
2014-3-8,34,28,14,32,24,9,89,84,77,30.58,30.33,6,0,6,0.49
2014-3-9,54,40,11,38,26,6,85,60,33,30.71,30.18,7,0,7,0.00
2014-3-10,60,47,28,30,22,15,68,40,20,30.16,29.63,14,1,16,0.00
2014-3-11,40,33,23,21,18,9,85,55,27,30.33,29.54,25,6,25,0.00
2014-3-12,44,28,4,20,12,-2,87,55,17,30.67,30.32,9,1,10,0.02
2014-3-13,50,42,20,25,18,9,70,39,24,30.34,29.77,19,2,19,0.00
2014-3-14,52,44,25,29,23,18,75,46,28,30.07,29.85,21,2,23,0.00
2014-3-15,42,37,30,20,15,7,60,42,28,30.25,29.82,28,7,28,0.00
2014-3-16,56,48,20,22,19,10,65,32,22,30.42,30.00,24,6,24,0.00
2014-3-17,57,49,31,21,15,9,57,27,18,29.81,29.19,29,7,29,0.00
2014-3-18,40,31,23,20,10,4,81,45,26,30.13,29.47,31,6,31,0.00
2014-3-19,47,38,15,19,13,7,82,40,20,30.36,30.04,26,2,26,0.01
2014-3-20,53,44,29,10,4,-1,35,21,12,30.04,29.79,18,3,18,0.00
2014-3-21,52,44,33,23,17,10,55,36,21,30.08,29.74,20,3,20,0.00
2014-3-22,52,35,19,23,20,13,86,57,27,30.35,29.80,22,3,22,0.00
2014-3-23,51,39,22,28,16,8,83,45,18,30.38,29.96,26,4,26,0.11
2014-3-24,52,44,31,25,14,6,71,31,19,30.13,29.86,25,5,25,0.00
2014-3-25,60,46,20,25,18,12,73,37,16,30.29,29.73,20,2,20,0.00
2014-3-26,53,46,35,30,25,20,78,45,29,29.65,29.27,26,7,36,0.00
2014-3-27,47,40,32,23,18,11,55,41,25,29.82,29.39,29,6,30,0.00
2014-3-28,46,40,29,21,13,6,68,34,21,30.06,29.86,25,7,25,0.00
2014-3-29,57,49,24,17,12,9,58,24,17,30.32,29.98,19,4,19,0.00
2014-3-30,57,51,42,25,18,10,42,28,19,29.72,29.28,41,8,41,0.00
2014-3-31,51,43,32,11,7,2,40,23,15,29.92,29.67,24,7,25,0.00
2014-4-1,55,46,24,22,17,13,74,34,21,29.88,29.48,47,8,47,0.00
2014-4-2,50,46,40,22,20,18,44,36,29,29.53,29.40,38,9,38,0.00
2014-4-3,33,30,27,28,24,17,92,80,63,30.13,29.62,18,3,18,0.05
2014-4-4,46,35,15,25,18,10,82,53,29,30.29,29.92,13,1,14,0.00
2014-4-5,45,36,29,32,27,20,92,73,37,29.93,29.77,11,0,11,0.07
2014-4-6,48,36,20,33,25,17,90,66,35,30.05,29.73,34,4,36,0.10
2014-4-7,49,40,29,24,18,11,71,43,24,30.26,29.99,30,6,30,0.00
2014-4-8,62,52,26,28,24,19,82,36,22,30.33,30.03,19,3,22,0.00
2014-4-9,66,55,25,31,24,18,78,33,20,30.19,29.73,20,3,23,0.00
2014-4-10,65,57,43,26,21,16,39,25,16,29.86,29.63,28,6,28,0.00
2014-4-11,68,58,31,30,23,20,66,28,17,30.04,29.58,22,3,22,0.00
2014-4-12,61,53,38,33,24,15,66,35,19,29.73,29.46,23,4,23,0.00
2014-4-13,46,32,17,34,26,14,92,80,62,30.12,29.50,29,3,29,0.01
2014-4-14,37,27,14,24,18,9,84,68,50,30.48,30.23,10,1,10,0.04
2014-4-15,58,45,20,26,20,13,75,39,21,30.22,29.66,15,1,18,0.00
2014-4-16,56,45,31,32,24,14,89,50,25,29.94,29.49,28,3,28,0.00
2014-4-17,39,33,29,31,28,26,89,81,68,30.20,30.12,7,1,7,0.25
2014-4-18,66,59,34,34,29,24,76,34,22,30.06,29.67,24,4,24,0.00
2014-4-19,64,55,45,40,35,32,74,49,33,29.84,29.66,14,2,14,0.00
2014-4-20,61,51,39,42,37,33,89,61,38,29.94,29.81,29,3,29,0.02
2014-4-21,63,54,36,40,37,32,86,54,41,30.20,29.92,25,3,25,0.04
2014-4-22,65,58,37,39,34,31,82,43,30,29.98,29.42,31,4,32,0.01
2014-4-23,61,57,52,28,24,17,39,28,21,29.42,29.32,30,8,30,0.00
2014-4-24,60,50,30,24,19,14,72,30,18,29.95,29.70,21,2,21,0.00
2014-4-25,46,44,36,18,17,15,44,33,28,29.79,29.74,5,0,11,0.00
2014-4-26,61,52,39,34,27,19,74,39,24,29.36,29.14,42,9,42,0.01
2014-4-27,39,39,39,23,23,22,52,51,50,29.19,29.18,9,4,13,0.00
2014-4-28,44,39,30,23,15,11,62,38,28,29.94,29.62,36,11,36,0.00
2014-4-29,47,41,24,16,13,10,56,32,24,30.17,30.05,32,10,32,0.00
2014-4-30,24,22,21,16,15,14,75,74,74,30.30,30.27,4,0,4,0.00
2014-5-1,53,43,25,22,13,8,73,31,19,30.28,30.01,22,3,22,0.00
2014-5-2,50,34,26,22,16,11,61,48,32,30.16,29.99,8,1,8,0.00
2014-5-3,71,64,36,31,24,19,61,23,14,29.94,29.61,24,4,24,0.00
2014-5-4,63,61,60,25,22,20,24,22,20,29.74,29.58,24,6,24,0.00
2014-5-5,73,66,56,26,22,17,25,19,13,29.67,29.42,22,4,22,0.00
2014-5-7,61,52,39,29,21,14,64,32,19,29.58,29.33,32,5,32,0.00
2014-5-8,54,45,33,32,23,18,70,44,26,29.91,29.63,26,4,26,0.00
2014-5-9,57,49,35,30,24,20,60,38,29,29.91,29.64,28,4,28,0.00
2014-5-10,65,59,34,32,28,22,60,31,23,29.78,29.39,32,4,32,0.00
2014-5-11,50,39,28,40,32,25,89,78,51,29.90,29.36,26,2,26,0.06
2014-5-12,34,30,26,30,26,23,92,84,81,30.41,30.17,12,1,13,0.51
2014-5-13,38,33,25,26,22,16,86,63,43,30.54,30.44,11,1,11,0.14
2014-5-14,20,20,19,17,16,15,86,86,85,30.59,30.58,0,0,0,0.00
2014-5-15,59,50,28,35,29,24,84,47,31,30.28,30.01,23,3,23,0.00
2014-5-16,66,59,40,40,32,24,72,38,24,29.95,29.75,26,5,31,0.00
2014-5-17,70,60,38,44,35,27,89,44,21,29.91,29.65,30,4,31,0.00
2014-5-18,73,66,42,43,30,21,77,28,18,29.78,29.38,24,4,27,0.00
2014-5-19,73,68,55,32,24,16,23,19,16,29.52,29.40,28,4,28,0.00
2014-5-20,73,65,45,30,23,18,41,21,14,29.74,29.51,22,4,22,0.00
2014-5-21,71,62,43,43,36,25,65,40,20,29.90,29.70,32,3,32,0.00
2014-5-22,67,59,45,46,42,38,84,55,35,30.06,29.80,26,2,27,0.02
2014-5-23,68,55,45,47,43,37,89,67,34,29.99,29.71,22,2,22,0.09
2014-5-24,66,52,41,47,41,38,88,70,41,29.96,29.65,16,2,16,0.80
2014-5-25,60,51,41,42,38,34,89,63,39,29.94,29.75,13,1,14,0.03
2014-5-26,67,58,39,44,40,35,87,52,33,30.02,29.81,14,2,14,0.00
2014-5-27,77,66,42,46,39,33,88,41,21,29.97,29.78,21,2,21,0.00
2014-5-28,80,60,42,46,40,28,82,52,18,29.97,29.75,25,1,25,0.00
2014-5-29,78,65,49,48,44,36,73,48,25,29.88,29.68,26,2,26,0.05
2014-5-30,71,60,51,52,48,43,87,66,39,29.90,29.69,15,1,15,0.27
2014-5-31,78,65,45,50,44,37,88,51,26,29.95,29.66,24,2,24,0.01
2014-6-1,77,68,52,50,34,25,82,32,15,29.73,29.52,16,3,21,0.00
2014-6-2,80,70,47,49,41,27,77,39,15,29.91,29.62,18,1,20,0.00
2014-6-3,76,72,64,36,31,27,30,22,18,29.65,29.43,32,8,32,0.00
2014-6-4,81,72,45,44,33,22,61,26,15,29.74,29.45,22,3,22,0.00
2014-6-5,80,67,50,49,43,33,81,44,19,29.72,29.57,18,2,19,0.00
2014-6-6,78,68,52,49,43,31,73,43,19,29.71,29.44,23,2,23,0.00
2014-6-7,68,60,47,51,47,39,85,63,40,29.80,29.62,29,2,29,0.21
2014-6-8,71,58,49,50,41,33,87,55,33,29.77,29.50,26,4,26,0.07
2014-6-9,73,61,46,34,26,18,60,28,17,29.94,29.71,23,4,23,0.00
2014-6-10,77,68,47,43,36,30,61,32,20,29.89,29.60,23,2,23,0.00
2014-6-11,77,63,41,42,38,31,73,42,23,29.86,29.54,28,4,28,0.02
2014-6-12,74,60,45,48,44,40,86,61,33,29.99,29.72,18,2,18,0.01
2014-6-13,77,70,43,44,36,31,85,32,20,29.81,29.31,28,4,28,0.01
2014-6-14,74,65,53,34,28,19,41,25,16,29.59,29.26,31,6,32,0.00
2014-6-15,75,67,38,34,25,17,47,22,14,29.80,29.48,21,3,21,0.00
2014-6-16,78,70,62,29,22,16,21,16,12,29.51,29.39,29,4,29,0.00
2014-6-17,68,66,61,33,31,27,29,27,25,29.52,29.42,22,5,22,0.00
2014-6-18,73,63,47,42,35,31,67,37,23,29.72,29.45,30,5,30,0.01
2014-6-19,76,60,40,43,35,28,78,46,18,29.97,29.76,15,2,15,0.00
2014-6-20,82,72,43,43,31,24,72,23,13,29.91,29.21,19,2,19,0.00
2014-6-21,80,70,50,45,38,30,62,33,18,29.80,29.55,21,2,22,0.00
2014-6-22,77,66,48,40,36,30,62,34,19,29.82,29.65,28,4,28,0.00
2014-6-23,78,68,42,50,43,33,75,42,21,29.92,29.68,21,3,21,0.00
2014-6-24,79,69,44,48,40,30,86,39,18,29.96,29.67,29,3,29,0.00
2014-6-25,81,71,47,50,41,32,85,38,18,29.84,29.57,21,1,21,0.00
2014-6-26,82,75,51,44,35,27,58,24,15,29.68,29.31,24,4,24,0.00
2014-6-27,75,68,60,40,35,31,38,30,22,29.48,29.31,21,4,23,0.00
2014-6-28,80,70,48,40,31,22,60,25,12,29.67,29.46,20,3,20,0.00
2014-6-29,85,77,58,45,39,31,38,26,20,29.72,28.82,25,3,25,0.00
2014-6-30,86,76,58,46,41,34,59,30,19,29.64,29.45,21,3,21,0.00
2014-7-1,75,66,56,50,48,46,73,54,40,29.89,29.66,21,4,21,0.02
2014-7-2,74,64,54,54,50,40,79,61,39,30.01,29.73,27,3,27,0.02
2014-7-3,81,69,47,52,45,38,90,45,23,29.99,29.73,26,2,26,0.01
2014-7-4,83,69,48,51,46,38,78,48,21,30.04,29.72,23,2,23,0.02
2014-7-5,82,72,49,52,45,39,87,40,23,30.02,29.78,20,1,20,0.01
2014-7-6,87,76,46,48,40,35,79,31,17,29.95,29.66,16,1,16,0.00
2014-7-7,86,72,50,49,44,39,68,39,22,29.84,29.58,22,2,23,0.00
2014-7-8,80,67,53,54,51,47,82,58,40,30.07,29.70,28,2,28,0.61
2014-7-9,81,71,51,51,46,41,79,43,24,29.99,29.64,16,1,16,0.00
2014-7-10,85,75,58,52,47,43,66,38,26,29.74,29.57,19,2,19,0.00
2014-7-11,82,69,54,55,50,46,76,51,33,29.86,29.68,15,1,15,0.00
2014-7-12,84,67,49,55,51,43,87,62,27,30.08,29.72,30,2,31,0.26
2014-7-13,78,66,52,59,54,48,90,67,42,30.11,29.80,15,1,15,0.26
2014-7-14,81,68,53,58,54,50,92,64,39,30.01,29.77,21,1,21,0.58
2014-7-15,81,64,54,56,52,46,91,68,33,29.95,29.69,14,1,14,0.19
2014-7-16,76,67,55,53,49,43,80,54,34,29.79,29.51,26,3,26,0.01
2014-7-17,73,62,49,54,50,46,90,67,44,29.87,29.69,16,1,16,0.04
2014-7-18,82,66,46,54,48,41,91,59,26,29.88,29.63,20,2,20,0.12
2014-7-19,83,68,51,52,48,44,85,51,27,29.90,29.69,31,1,31,0.00
2014-7-20,88,74,47,54,47,40,83,40,21,29.90,29.67,15,1,15,0.00
2014-7-21,84,72,54,54,50,46,77,48,30,29.88,29.71,20,1,20,0.00
2014-7-22,88,74,47,54,47,40,83,41,22,30.05,29.79,12,1,12,0.00
2014-7-23,87,77,52,52,46,38,80,36,19,30.06,29.77,19,1,19,0.00
2014-7-24,85,76,62,52,48,44,60,39,26,29.83,29.60,30,2,32,0.00
2014-7-25,86,73,59,54,50,47,69,47,28,29.79,29.59,21,1,23,0.00
2014-7-26,85,72,50,54,50,44,83,48,26,29.94,29.69,29,2,30,0.00
2014-7-27,78,64,50,56,52,45,89,68,43,30.13,29.85,12,1,12,0.03
2014-7-28,78,64,56,58,54,48,89,72,43,30.08,29.86,14,1,14,0.37
2014-7-29,76,66,49,55,52,46,92,62,42,30.08,29.77,12,1,12,0.00
2014-7-30,66,59,54,56,53,51,90,82,62,30.01,29.86,14,1,14,0.56
2014-7-31,65,58,53,54,52,50,91,83,66,30.03,29.89,13,1,14,0.19
2014-8-1,66,58,50,54,52,48,92,82,61,30.09,29.92,18,1,18,0.29
2014-8-2,75,64,47,55,50,45,92,64,40,30.14,29.86,18,1,18,0.00
2014-8-3,80,66,46,54,50,43,90,60,31,30.04,29.79,26,0,26,0.33
2014-8-4,78,66,51,54,50,45,86,58,39,29.93,29.74,19,2,19,0.04
2014-8-5,78,68,49,54,50,44,90,55,35,29.98,29.75,23,1,23,0.00
2014-8-6,80,71,48,52,46,40,85,43,25,29.93,29.69,15,0,15,0.00
2014-8-7,80,70,52,54,48,40,86,48,26,29.85,29.67,24,2,24,0.00
2014-8-8,79,69,47,52,45,37,92,47,23,29.92,29.67,19,1,19,0.00
2014-8-9,80,71,46,47,41,32,83,38,19,29.93,29.73,16,2,16,0.00
2014-8-10,74,61,48,52,47,42,89,63,38,30.25,29.88,16,1,19,0.60
2014-8-11,77,64,41,52,48,38,91,59,38,30.29,29.98,21,1,21,0.01
2014-8-12,80,71,52,54,49,43,88,48,29,30.06,29.84,22,2,22,0.00
2014-8-13,82,71,46,54,50,42,88,50,30,30.01,29.74,21,2,21,0.00
2014-8-14,75,66,53,55,51,47,86,61,39,29.79,29.64,16,1,16,0.01
2014-8-15,80,70,48,55,49,43,88,50,29,29.95,29.73,28,1,30,0.03
2014-8-16,59,50,44,52,46,41,92,86,77,30.06,29.96,6,0,6,0.00
2014-8-19,80,67,49,51,46,42,75,49,28,29.77,29.49,13,1,14,0.00
2014-8-20,79,68,57,50,47,44,61,48,32,29.65,29.47,16,2,16,0.00
2014-8-21,65,53,45,47,44,39,81,71,49,29.88,29.74,4,0,4,0.00
2014-8-22,63,57,51,52,49,45,89,74,56,29.89,29.73,9,1,9,0.18
2014-8-23,72,64,50,47,44,41,75,48,35,29.79,29.62,25,4,25,0.00
2014-8-24,75,65,48,48,43,40,79,47,31,29.85,29.67,14,1,14,0.00
2014-8-25,78,66,50,53,45,38,80,49,25,29.86,29.68,23,3,23,0.00
2014-8-27,72,64,51,51,44,38,88,50,32,29.98,29.77,23,4,23,0.00
2014-8-28,66,58,42,50,44,37,82,63,39,30.03,29.83,21,2,23,0.06
2014-8-29,74,63,37,48,41,34,90,47,25,30.12,29.82,22,2,22,0.00
2014-8-30,78,66,40,48,42,36,86,45,24,30.04,29.66,20,2,20,0.00
2014-8-31,79,68,50,43,40,37,63,36,22,29.66,29.49,25,3,25,0.00
2014-9-1,78,67,40,49,39,32,81,40,21,29.88,29.65,21,3,21,0.00
2014-9-2,82,68,40,45,38,34,78,37,19,29.97,29.57,9,1,10,0.00
2014-9-3,82,74,48,44,38,33,63,29,19,29.75,29.43,19,3,25,0.00
2014-9-4,80,68,50,50,42,33,76,41,23,29.80,29.53,16,2,16,0.07
2014-9-5,66,57,49,49,46,42,85,66,51,30.11,29.88,11,1,11,0.01
2014-9-6,69,60,48,54,48,44,87,66,46,30.15,29.91,9,1,13,0.24
2014-9-7,78,63,41,54,46,37,91,58,26,30.11,29.76,10,1,14,0.01
2014-9-8,73,64,48,50,47,43,83,56,38,29.94,29.70,12,2,16,0.00
2014-9-9,70,63,52,53,47,39,84,57,43,29.68,29.50,25,4,37,0.01
2014-9-10,72,61,46,49,42,34,86,52,27,29.90,29.72,18,2,22,0.00
2014-9-11,75,64,38,48,41,31,89,48,21,30.07,29.74,14,2,18,0.00
2014-9-12,57,46,37,40,35,31,81,66,47,30.29,30.03,13,2,14,0.00
2014-9-13,74,62,31,41,34,28,96,41,20,30.28,29.88,16,3,22,0.00
2014-9-14,77,66,41,44,38,34,76,37,23,30.08,29.79,13,2,13,0.00
2014-9-15,75,63,40,48,43,33,77,51,27,30.09,29.88,11,2,13,0.00
2014-9-16,80,67,41,49,41,36,88,43,23,30.13,29.81,13,2,13,0.00
2014-9-17,76,68,51,46,43,40,72,41,30,29.94,29.72,18,2,26,0.00
2014-9-18,80,66,39,44,38,33,80,40,21,29.99,29.62,24,1,28,0.00
2014-9-19,83,70,39,44,39,31,75,36,20,29.93,29.63,12,2,13,0.00
2014-9-20,80,69,44,49,43,35,71,41,26,30.02,29.81,14,2,14,0.00
2014-9-21,64,59,53,55,52,50,92,78,61,30.08,29.97,11,2,12,0.21
2014-9-22,69,60,50,57,50,46,91,70,45,30.03,29.82,15,2,15,0.10
2014-9-23,72,61,45,49,43,38,85,54,30,30.00,29.82,19,3,22,0.00
2014-9-24,77,64,40,45,42,36,86,48,24,30.19,29.92,9,1,10,0.00
2014-9-25,80,68,40,46,42,35,83,42,25,30.14,29.80,8,1,10,0.00
2014-9-26,80,67,39,45,41,34,89,43,24,30.02,29.68,9,1,12,0.00
2014-9-27,79,64,39,46,41,33,80,45,26,29.92,29.59,11,1,12,0.00
2014-9-28,69,62,53,50,45,41,73,54,39,29.78,29.65,15,2,16,0.00
2014-9-29,66,54,46,49,38,29,88,58,38,29.83,29.48,22,3,29,0.12
2014-9-30,60,53,38,35,31,26,63,44,32,29.83,29.61,15,3,20,0.00
2014-10-1,57,50,38,41,34,28,80,58,35,29.85,29.65,14,2,15,0.03
2014-10-2,44,39,34,27,25,23,72,59,43,30.13,30.04,18,3,18,0.00
2014-10-3,65,51,34,34,29,26,83,48,23,30.34,30.05,13,2,14,0.00
2014-10-4,70,57,28,35,29,20,73,36,23,30.27,29.85,18,2,18,0.00
2014-10-5,68,54,30,32,25,20,71,35,17,30.10,29.82,22,3,22,0.00
2014-10-6,30,30,30,22,22,21,70,70,69,30.08,30.02,0,0,0,0.00
2014-10-9,50,47,41,46,43,37,92,85,73,30.04,29.78,12,2,13,0.45
2014-10-10,50,45,41,42,40,38,94,82,63,30.16,30.02,9,1,9,0.04
2014-10-11,62,52,32,43,36,29,91,57,33,30.17,29.81,20,3,20,0.00
2014-10-12,55,45,35,40,33,27,86,63,38,29.91,29.50,36,6,36,0.08
2014-10-13,56,44,26,32,25,20,89,51,27,30.31,30.02,21,4,21,0.01
2014-10-14,70,53,24,34,28,19,85,44,19,30.37,30.00,7,0,7,0.00
2014-10-15,71,62,30,37,26,20,76,29,15,30.18,29.62,24,3,24,0.00
2014-10-16,71,60,42,33,28,21,59,31,18,29.92,29.63,18,2,18,0.00
2014-10-17,68,52,28,35,32,23,83,49,26,30.19,29.85,10,1,10,0.00
2014-10-18,65,52,36,38,36,31,82,55,33,30.15,29.85,11,1,12,0.00
2014-10-19,66,56,39,40,37,34,83,52,32,30.10,29.79,10,1,10,0.00
2014-10-20,66,54,31,38,34,26,84,50,31,30.21,29.92,9,1,9,0.00
2014-10-21,64,55,34,41,36,29,83,50,34,30.04,29.72,16,2,16,0.00